sensor_id;sensor_type;location;lat;lon;timestamp;P1;durP1;ratioP1;P2;durP2;ratioP2
18532;SDS011;9396;51.510;11.934;2022-10-26T00:01:48;7.53;;;5.53;;
18532;SDS011;9396;51.510;11.934;2022-10-26T00:04:14;7.40;;;5.67;;
18532;SDS011;9396;51.510;11.934;2022-10-26T00:06:41;7.57;;;5.20;;
18532;SDS011;9396;51.510;11.934;2022-10-26T00:09:08;8.17;;;4.93;;
18532;SDS011;9396;51.510;11.934;2022-10-26T00:11:34;6.93;;;3.93;;
18532;SDS011;9396;51.510;11.934;2022-10-26T00:14:01;5.73;;;4.40;;
18532;SDS011;9396;51.510;11.934;2022-10-26T00:16:29;7.67;;;4.50;;
18532;SDS011;9396;51.510;11.934;2022-10-26T00:18:55;8.53;;;4.23;;
18532;SDS011;9396;51.510;11.934;2022-10-26T00:21:22;8.53;;;4.20;;
18532;SDS011;9396;51.510;11.934;2022-10-26T00:23:49;8.73;;;3.93;;
18532;SDS011;9396;51.510;11.934;2022-10-26T00:26:15;7.23;;;4.20;;
18532;SDS011;9396;51.510;11.934;2022-10-26T00:28:42;8.70;;;4.30;;
18532;SDS011;9396;51.510;11.934;2022-10-26T00:31:10;8.07;;;3.87;;
18532;SDS011;9396;51.510;11.934;2022-10-26T00:33:39;8.50;;;3.47;;
18532;SDS011;9396;51.510;11.934;2022-10-26T00:36:07;8.07;;;3.80;;
18532;SDS011;9396;51.510;11.934;2022-10-26T00:38:35;5.73;;;4.30;;
18532;SDS011;9396;51.510;11.934;2022-10-26T00:41:01;5.30;;;3.70;;
18532;SDS011;9396;51.510;11.934;2022-10-26T00:43:37;8.17;;;4.00;;
18532;SDS011;9396;51.510;11.934;2022-10-26T00:46:05;7.00;;;4.30;;
18532;SDS011;9396;51.510;11.934;2022-10-26T00:48:37;7.10;;;5.07;;
18532;SDS011;9396;51.510;11.934;2022-10-26T00:51:08;6.20;;;4.20;;
18532;SDS011;9396;51.510;11.934;2022-10-26T00:53:38;9.00;;;4.27;;
18532;SDS011;9396;51.510;11.934;2022-10-26T00:56:05;7.27;;;3.63;;
18532;SDS011;9396;51.510;11.934;2022-10-26T00:58:33;6.03;;;3.27;;
18532;SDS011;9396;51.510;11.934;2022-10-26T01:01:00;5.10;;;3.47;;
18532;SDS011;9396;51.510;11.934;2022-10-26T01:03:27;4.90;;;3.13;;
18532;SDS011;9396;51.510;11.934;2022-10-26T01:05:57;6.43;;;3.40;;
18532;SDS011;9396;51.510;11.934;2022-10-26T01:08:24;6.30;;;3.30;;
18532;SDS011;9396;51.510;11.934;2022-10-26T01:10:52;6.03;;;3.33;;
18532;SDS011;9396;51.510;11.934;2022-10-26T01:13:19;3.63;;;2.93;;
18532;SDS011;9396;51.510;11.934;2022-10-26T01:15:47;5.63;;;3.10;;
18532;SDS011;9396;51.510;11.934;2022-10-26T01:18:24;8.23;;;3.40;;
18532;SDS011;9396;51.510;11.934;2022-10-26T01:24:06;5.10;;;3.40;;
18532;SDS011;9396;51.510;11.934;2022-10-26T01:27:03;4.07;;;3.30;;
18532;SDS011;9396;51.510;11.934;2022-10-26T01:32:36;4.00;;;3.07;;
18532;SDS011;9396;51.510;11.934;2022-10-26T01:35:11;3.47;;;2.90;;
18532;SDS011;9396;51.510;11.934;2022-10-26T01:37:42;5.07;;;2.90;;
18532;SDS011;9396;51.510;11.934;2022-10-26T01:40:14;4.87;;;3.20;;
18532;SDS011;9396;51.510;11.934;2022-10-26T01:42:46;9.10;;;3.43;;
18532;SDS011;9396;51.510;11.934;2022-10-26T01:45:18;4.90;;;3.33;;
18532;SDS011;9396;51.510;11.934;2022-10-26T01:47:45;4.07;;;3.33;;
18532;SDS011;9396;51.510;11.934;2022-10-26T01:50:13;4.43;;;3.10;;
18532;SDS011;9396;51.510;11.934;2022-10-26T01:52:42;5.87;;;3.50;;
18532;SDS011;9396;51.510;11.934;2022-10-26T01:58:27;3.70;;;3.10;;
18532;SDS011;9396;51.510;11.934;2022-10-26T02:01:10;4.93;;;3.40;;
18532;SDS011;9396;51.510;11.934;2022-10-26T02:03:49;6.33;;;3.50;;
18532;SDS011;9396;51.510;11.934;2022-10-26T02:06:21;7.17;;;3.50;;
18532;SDS011;9396;51.510;11.934;2022-10-26T02:08:59;9.70;;;3.57;;
18532;SDS011;9396;51.510;11.934;2022-10-26T02:11:35;4.80;;;3.40;;
18532;SDS011;9396;51.510;11.934;2022-10-26T02:14:11;8.83;;;4.03;;
18532;SDS011;9396;51.510;11.934;2022-10-26T02:16:47;4.63;;;3.87;;
18532;SDS011;9396;51.510;11.934;2022-10-26T02:19:31;4.33;;;3.57;;
18532;SDS011;9396;51.510;11.934;2022-10-26T02:22:02;4.37;;;3.57;;
18532;SDS011;9396;51.510;11.934;2022-10-26T02:24:35;4.90;;;3.73;;
18532;SDS011;9396;51.510;11.934;2022-10-26T02:27:03;7.83;;;4.40;;
18532;SDS011;9396;51.510;11.934;2022-10-26T02:29:36;6.30;;;3.60;;
18532;SDS011;9396;51.510;11.934;2022-10-26T02:32:06;4.70;;;3.53;;
18532;SDS011;9396;51.510;11.934;2022-10-26T02:34:34;4.83;;;3.70;;
18532;SDS011;9396;51.510;11.934;2022-10-26T02:37:03;5.53;;;3.43;;
18532;SDS011;9396;51.510;11.934;2022-10-26T02:39:32;7.17;;;3.57;;
18532;SDS011;9396;51.510;11.934;2022-10-26T02:42:03;5.53;;;3.87;;
18532;SDS011;9396;51.510;11.934;2022-10-26T02:44:32;6.13;;;4.20;;
18532;SDS011;9396;51.510;11.934;2022-10-26T02:47:04;5.17;;;3.80;;
18532;SDS011;9396;51.510;11.934;2022-10-26T02:49:32;6.73;;;4.20;;
18532;SDS011;9396;51.510;11.934;2022-10-26T02:52:00;7.07;;;4.10;;
18532;SDS011;9396;51.510;11.934;2022-10-26T02:54:31;7.53;;;3.53;;
18532;SDS011;9396;51.510;11.934;2022-10-26T02:57:03;5.67;;;3.80;;
18532;SDS011;9396;51.510;11.934;2022-10-26T02:59:35;5.93;;;3.43;;
18532;SDS011;9396;51.510;11.934;2022-10-26T03:02:08;6.17;;;3.80;;
18532;SDS011;9396;51.510;11.934;2022-10-26T03:04:37;8.23;;;4.23;;
18532;SDS011;9396;51.510;11.934;2022-10-26T03:07:03;5.00;;;3.63;;
18532;SDS011;9396;51.510;11.934;2022-10-26T03:09:30;7.00;;;3.60;;
18532;SDS011;9396;51.510;11.934;2022-10-26T03:11:57;4.83;;;3.80;;
18532;SDS011;9396;51.510;11.934;2022-10-26T03:14:23;6.47;;;4.00;;
18532;SDS011;9396;51.510;11.934;2022-10-26T03:16:50;6.37;;;3.90;;
18532;SDS011;9396;51.510;11.934;2022-10-26T03:19:18;6.33;;;4.00;;
18532;SDS011;9396;51.510;11.934;2022-10-26T03:21:44;8.87;;;4.27;;
18532;SDS011;9396;51.510;11.934;2022-10-26T03:24:11;6.27;;;4.03;;
18532;SDS011;9396;51.510;11.934;2022-10-26T03:26:38;8.60;;;4.37;;
18532;SDS011;9396;51.510;11.934;2022-10-26T03:29:04;5.33;;;3.80;;
18532;SDS011;9396;51.510;11.934;2022-10-26T03:31:33;8.00;;;3.80;;
18532;SDS011;9396;51.510;11.934;2022-10-26T03:33:59;6.43;;;3.77;;
18532;SDS011;9396;51.510;11.934;2022-10-26T03:36:27;5.27;;;3.43;;
18532;SDS011;9396;51.510;11.934;2022-10-26T03:38:54;10.80;;;4.20;;
18532;SDS011;9396;51.510;11.934;2022-10-26T03:41:21;5.87;;;3.93;;
18532;SDS011;9396;51.510;11.934;2022-10-26T03:43:47;6.93;;;3.50;;
18532;SDS011;9396;51.510;11.934;2022-10-26T03:46:14;4.60;;;3.60;;
18532;SDS011;9396;51.510;11.934;2022-10-26T03:48:40;5.13;;;3.50;;
18532;SDS011;9396;51.510;11.934;2022-10-26T03:51:07;4.63;;;3.50;;
18532;SDS011;9396;51.510;11.934;2022-10-26T03:53:35;4.57;;;3.33;;
18532;SDS011;9396;51.510;11.934;2022-10-26T03:56:02;9.07;;;3.70;;
18532;SDS011;9396;51.510;11.934;2022-10-26T03:58:28;6.70;;;3.57;;
18532;SDS011;9396;51.510;11.934;2022-10-26T04:00:55;12.73;;;3.90;;
18532;SDS011;9396;51.510;11.934;2022-10-26T04:03:21;9.00;;;3.97;;
18532;SDS011;9396;51.510;11.934;2022-10-26T04:05:48;9.73;;;3.50;;
18532;SDS011;9396;51.510;11.934;2022-10-26T04:08:15;8.17;;;4.50;;
18532;SDS011;9396;51.510;11.934;2022-10-26T04:10:44;5.27;;;4.07;;
18532;SDS011;9396;51.510;11.934;2022-10-26T04:13:11;4.50;;;3.60;;
18532;SDS011;9396;51.510;11.934;2022-10-26T04:15:38;5.03;;;3.60;;
18532;SDS011;9396;51.510;11.934;2022-10-26T04:18:04;3.97;;;3.17;;
18532;SDS011;9396;51.510;11.934;2022-10-26T04:20:31;4.83;;;3.60;;
18532;SDS011;9396;51.510;11.934;2022-10-26T04:23:01;4.63;;;3.97;;
18532;SDS011;9396;51.510;11.934;2022-10-26T04:25:29;7.53;;;3.67;;
18532;SDS011;9396;51.510;11.934;2022-10-26T04:27:57;7.43;;;3.70;;
18532;SDS011;9396;51.510;11.934;2022-10-26T04:30:24;5.50;;;3.97;;
18532;SDS011;9396;51.510;11.934;2022-10-26T04:32:51;6.27;;;3.33;;
18532;SDS011;9396;51.510;11.934;2022-10-26T04:35:18;3.60;;;3.17;;
18532;SDS011;9396;51.510;11.934;2022-10-26T04:37:44;6.80;;;3.90;;
18532;SDS011;9396;51.510;11.934;2022-10-26T04:40:11;5.47;;;3.93;;
18532;SDS011;9396;51.510;11.934;2022-10-26T04:42:41;4.37;;;3.43;;
18532;SDS011;9396;51.510;11.934;2022-10-26T04:45:10;5.40;;;3.87;;
18532;SDS011;9396;51.510;11.934;2022-10-26T04:47:37;4.50;;;3.70;;
18532;SDS011;9396;51.510;11.934;2022-10-26T04:50:04;5.70;;;3.60;;
18532;SDS011;9396;51.510;11.934;2022-10-26T04:52:32;6.93;;;3.73;;
18532;SDS011;9396;51.510;11.934;2022-10-26T04:54:59;4.80;;;3.80;;
18532;SDS011;9396;51.510;11.934;2022-10-26T04:57:26;4.20;;;3.53;;
18532;SDS011;9396;51.510;11.934;2022-10-26T04:59:52;7.90;;;3.60;;
18532;SDS011;9396;51.510;11.934;2022-10-26T05:02:20;5.37;;;3.43;;
18532;SDS011;9396;51.510;11.934;2022-10-26T05:04:47;6.80;;;3.70;;
18532;SDS011;9396;51.510;11.934;2022-10-26T05:07:13;4.57;;;3.43;;
18532;SDS011;9396;51.510;11.934;2022-10-26T05:09:40;5.83;;;3.70;;
18532;SDS011;9396;51.510;11.934;2022-10-26T05:12:07;4.37;;;3.60;;
18532;SDS011;9396;51.510;11.934;2022-10-26T05:14:33;7.27;;;3.50;;
18532;SDS011;9396;51.510;11.934;2022-10-26T05:17:00;5.00;;;3.10;;
18532;SDS011;9396;51.510;11.934;2022-10-26T05:19:28;4.47;;;3.20;;
18532;SDS011;9396;51.510;11.934;2022-10-26T05:21:54;6.47;;;3.50;;
18532;SDS011;9396;51.510;11.934;2022-10-26T05:24:21;5.73;;;3.10;;
18532;SDS011;9396;51.510;11.934;2022-10-26T05:26:47;3.93;;;3.00;;
18532;SDS011;9396;51.510;11.934;2022-10-26T05:29:14;4.67;;;3.33;;
18532;SDS011;9396;51.510;11.934;2022-10-26T05:31:41;4.33;;;3.17;;
18532;SDS011;9396;51.510;11.934;2022-10-26T05:34:07;4.20;;;3.37;;
18532;SDS011;9396;51.510;11.934;2022-10-26T05:36:35;6.27;;;3.60;;
18532;SDS011;9396;51.510;11.934;2022-10-26T05:39:02;4.33;;;3.03;;
18532;SDS011;9396;51.510;11.934;2022-10-26T05:41:29;5.17;;;3.60;;
18532;SDS011;9396;51.510;11.934;2022-10-26T05:43:55;5.50;;;4.00;;
18532;SDS011;9396;51.510;11.934;2022-10-26T05:46:22;5.63;;;4.37;;
18532;SDS011;9396;51.510;11.934;2022-10-26T05:48:49;10.27;;;6.63;;
18532;SDS011;9396;51.510;11.934;2022-10-26T05:51:15;13.00;;;9.23;;
18532;SDS011;9396;51.510;11.934;2022-10-26T05:53:43;10.33;;;7.93;;
18532;SDS011;9396;51.510;11.934;2022-10-26T05:56:12;14.10;;;8.93;;
18532;SDS011;9396;51.510;11.934;2022-10-26T05:58:44;11.07;;;8.17;;
18532;SDS011;9396;51.510;11.934;2022-10-26T06:01:13;8.40;;;6.07;;
18532;SDS011;9396;51.510;11.934;2022-10-26T06:03:53;10.23;;;6.30;;
18532;SDS011;9396;51.510;11.934;2022-10-26T06:06:34;6.87;;;5.00;;
18532;SDS011;9396;51.510;11.934;2022-10-26T06:09:07;9.03;;;5.90;;
18532;SDS011;9396;51.510;11.934;2022-10-26T06:11:36;10.13;;;5.43;;
18532;SDS011;9396;51.510;11.934;2022-10-26T06:14:03;7.93;;;4.83;;
18532;SDS011;9396;51.510;11.934;2022-10-26T06:16:32;6.13;;;4.80;;
18532;SDS011;9396;51.510;11.934;2022-10-26T06:19:13;9.33;;;4.97;;
18532;SDS011;9396;51.510;11.934;2022-10-26T06:21:54;9.40;;;5.10;;
18532;SDS011;9396;51.510;11.934;2022-10-26T06:24:32;6.80;;;5.53;;
18532;SDS011;9396;51.510;11.934;2022-10-26T06:27:06;8.70;;;4.87;;
18532;SDS011;9396;51.510;11.934;2022-10-26T06:29:45;9.43;;;6.10;;
18532;SDS011;9396;51.510;11.934;2022-10-26T06:32:21;10.03;;;7.53;;
18532;SDS011;9396;51.510;11.934;2022-10-26T06:34:48;11.10;;;7.37;;
18532;SDS011;9396;51.510;11.934;2022-10-26T06:37:18;11.03;;;7.00;;
18532;SDS011;9396;51.510;11.934;2022-10-26T06:39:47;11.00;;;7.07;;
18532;SDS011;9396;51.510;11.934;2022-10-26T06:42:15;13.30;;;5.90;;
18532;SDS011;9396;51.510;11.934;2022-10-26T06:44:42;11.63;;;6.83;;
18532;SDS011;9396;51.510;11.934;2022-10-26T06:47:12;10.07;;;6.70;;
18532;SDS011;9396;51.510;11.934;2022-10-26T06:49:48;16.53;;;7.37;;
18532;SDS011;9396;51.510;11.934;2022-10-26T06:52:24;10.47;;;6.07;;
18532;SDS011;9396;51.510;11.934;2022-10-26T06:54:58;8.80;;;5.60;;
18532;SDS011;9396;51.510;11.934;2022-10-26T06:57:27;7.70;;;5.97;;
18532;SDS011;9396;51.510;11.934;2022-10-26T06:59:58;7.47;;;5.57;;
18532;SDS011;9396;51.510;11.934;2022-10-26T07:02:27;8.80;;;5.47;;
18532;SDS011;9396;51.510;11.934;2022-10-26T07:04:54;10.13;;;6.13;;
18532;SDS011;9396;51.510;11.934;2022-10-26T07:07:21;9.37;;;5.93;;
18532;SDS011;9396;51.510;11.934;2022-10-26T07:09:49;9.27;;;6.40;;
18532;SDS011;9396;51.510;11.934;2022-10-26T07:12:17;12.90;;;6.40;;
18532;SDS011;9396;51.510;11.934;2022-10-26T07:14:44;9.53;;;5.77;;
18532;SDS011;9396;51.510;11.934;2022-10-26T07:17:11;9.07;;;5.90;;
18532;SDS011;9396;51.510;11.934;2022-10-26T07:19:37;10.00;;;5.47;;
18532;SDS011;9396;51.510;11.934;2022-10-26T07:22:04;5.83;;;4.70;;
18532;SDS011;9396;51.510;11.934;2022-10-26T07:24:31;6.83;;;4.57;;
18532;SDS011;9396;51.510;11.934;2022-10-26T07:26:58;9.70;;;4.50;;
18532;SDS011;9396;51.510;11.934;2022-10-26T07:29:26;11.17;;;4.60;;
18532;SDS011;9396;51.510;11.934;2022-10-26T07:31:52;7.90;;;5.10;;
18532;SDS011;9396;51.510;11.934;2022-10-26T07:34:19;5.97;;;4.63;;
18532;SDS011;9396;51.510;11.934;2022-10-26T07:36:45;6.77;;;4.83;;
18532;SDS011;9396;51.510;11.934;2022-10-26T07:39:12;8.20;;;5.53;;
18532;SDS011;9396;51.510;11.934;2022-10-26T07:41:39;10.37;;;4.97;;
18532;SDS011;9396;51.510;11.934;2022-10-26T07:44:05;6.60;;;4.50;;
18532;SDS011;9396;51.510;11.934;2022-10-26T07:46:33;6.87;;;3.90;;
18532;SDS011;9396;51.510;11.934;2022-10-26T07:49:00;5.43;;;3.93;;
18532;SDS011;9396;51.510;11.934;2022-10-26T07:51:26;14.03;;;5.43;;
18532;SDS011;9396;51.510;11.934;2022-10-26T07:53:53;8.23;;;5.00;;
18532;SDS011;9396;51.510;11.934;2022-10-26T07:56:20;7.17;;;4.47;;
18532;SDS011;9396;51.510;11.934;2022-10-26T07:58:46;9.40;;;4.10;;
18532;SDS011;9396;51.510;11.934;2022-10-26T08:01:14;11.87;;;4.20;;
18532;SDS011;9396;51.510;11.934;2022-10-26T08:03:42;6.63;;;4.00;;
18532;SDS011;9396;51.510;11.934;2022-10-26T08:06:09;8.37;;;4.37;;
18532;SDS011;9396;51.510;11.934;2022-10-26T08:08:36;7.37;;;3.90;;
18532;SDS011;9396;51.510;11.934;2022-10-26T08:11:03;5.23;;;3.60;;
18532;SDS011;9396;51.510;11.934;2022-10-26T08:13:31;10.00;;;3.97;;
18532;SDS011;9396;51.510;11.934;2022-10-26T08:16:00;6.43;;;4.07;;
18532;SDS011;9396;51.510;11.934;2022-10-26T08:18:28;7.40;;;3.80;;
18532;SDS011;9396;51.510;11.934;2022-10-26T08:20:59;6.23;;;3.93;;
18532;SDS011;9396;51.510;11.934;2022-10-26T08:23:27;6.27;;;3.77;;
18532;SDS011;9396;51.510;11.934;2022-10-26T08:25:56;9.33;;;4.07;;
18532;SDS011;9396;51.510;11.934;2022-10-26T08:28:23;5.57;;;3.57;;
18532;SDS011;9396;51.510;11.934;2022-10-26T08:30:50;6.47;;;3.40;;
18532;SDS011;9396;51.510;11.934;2022-10-26T08:33:17;7.60;;;3.37;;
18532;SDS011;9396;51.510;11.934;2022-10-26T08:35:43;5.83;;;3.30;;
18532;SDS011;9396;51.510;11.934;2022-10-26T08:38:11;5.13;;;3.23;;
18532;SDS011;9396;51.510;11.934;2022-10-26T08:40:38;8.07;;;3.77;;
18532;SDS011;9396;51.510;11.934;2022-10-26T08:43:09;6.20;;;3.40;;
18532;SDS011;9396;51.510;11.934;2022-10-26T08:45:43;6.07;;;3.40;;
18532;SDS011;9396;51.510;11.934;2022-10-26T08:48:15;5.70;;;2.87;;
18532;SDS011;9396;51.510;11.934;2022-10-26T08:50:46;4.77;;;3.57;;
18532;SDS011;9396;51.510;11.934;2022-10-26T08:53:19;8.53;;;3.93;;
18532;SDS011;9396;51.510;11.934;2022-10-26T08:55:53;5.43;;;3.03;;
18532;SDS011;9396;51.510;11.934;2022-10-26T08:58:26;7.37;;;3.13;;
18532;SDS011;9396;51.510;11.934;2022-10-26T09:00:55;8.40;;;3.57;;
18532;SDS011;9396;51.510;11.934;2022-10-26T09:03:23;9.33;;;3.23;;
18532;SDS011;9396;51.510;11.934;2022-10-26T09:06:04;5.43;;;3.13;;
18532;SDS011;9396;51.510;11.934;2022-10-26T09:08:41;5.33;;;3.37;;
18532;SDS011;9396;51.510;11.934;2022-10-26T09:11:17;5.93;;;3.43;;
18532;SDS011;9396;51.510;11.934;2022-10-26T09:13:57;6.07;;;3.37;;
18532;SDS011;9396;51.510;11.934;2022-10-26T09:16:30;5.27;;;2.90;;
18532;SDS011;9396;51.510;11.934;2022-10-26T09:19:09;5.17;;;3.17;;
18532;SDS011;9396;51.510;11.934;2022-10-26T09:21:49;4.33;;;2.83;;
18532;SDS011;9396;51.510;11.934;2022-10-26T09:24:27;5.77;;;3.30;;
18532;SDS011;9396;51.510;11.934;2022-10-26T09:26:57;6.93;;;3.10;;
18532;SDS011;9396;51.510;11.934;2022-10-26T09:29:35;4.93;;;3.23;;
18532;SDS011;9396;51.510;11.934;2022-10-26T09:32:07;9.00;;;3.23;;
18532;SDS011;9396;51.510;11.934;2022-10-26T09:34:40;5.90;;;3.00;;
18532;SDS011;9396;51.510;11.934;2022-10-26T09:37:12;5.33;;;3.03;;
18532;SDS011;9396;51.510;11.934;2022-10-26T09:39:45;8.20;;;3.50;;
18532;SDS011;9396;51.510;11.934;2022-10-26T09:42:21;8.10;;;3.27;;
18532;SDS011;9396;51.510;11.934;2022-10-26T09:44:54;3.37;;;2.70;;
18532;SDS011;9396;51.510;11.934;2022-10-26T09:47:30;4.97;;;2.43;;
18532;SDS011;9396;51.510;11.934;2022-10-26T09:50:01;7.47;;;2.67;;
18532;SDS011;9396;51.510;11.934;2022-10-26T09:52:32;7.10;;;2.70;;
18532;SDS011;9396;51.510;11.934;2022-10-26T09:55:00;5.37;;;3.10;;
18532;SDS011;9396;51.510;11.934;2022-10-26T09:57:27;5.57;;;3.17;;
18532;SDS011;9396;51.510;11.934;2022-10-26T09:59:54;11.00;;;3.67;;
18532;SDS011;9396;51.510;11.934;2022-10-26T10:02:31;7.00;;;3.90;;
18532;SDS011;9396;51.510;11.934;2022-10-26T10:04:59;10.53;;;4.00;;
18532;SDS011;9396;51.510;11.934;2022-10-26T10:07:26;8.77;;;4.20;;
18532;SDS011;9396;51.510;11.934;2022-10-26T10:10:06;9.43;;;3.67;;
18532;SDS011;9396;51.510;11.934;2022-10-26T10:12:39;10.23;;;4.13;;
18532;SDS011;9396;51.510;11.934;2022-10-26T10:15:12;8.13;;;3.87;;
18532;SDS011;9396;51.510;11.934;2022-10-26T10:17:45;9.33;;;5.23;;
18532;SDS011;9396;51.510;11.934;2022-10-26T10:20:15;12.07;;;4.60;;
18532;SDS011;9396;51.510;11.934;2022-10-26T10:22:57;6.07;;;4.57;;
18532;SDS011;9396;51.510;11.934;2022-10-26T10:25:33;7.40;;;4.10;;
18532;SDS011;9396;51.510;11.934;2022-10-26T10:28:01;6.87;;;4.10;;
18532;SDS011;9396;51.510;11.934;2022-10-26T10:30:29;7.20;;;4.20;;
18532;SDS011;9396;51.510;11.934;2022-10-26T10:33:03;9.17;;;4.20;;
18532;SDS011;9396;51.510;11.934;2022-10-26T10:35:31;9.13;;;4.47;;
18532;SDS011;9396;51.510;11.934;2022-10-26T10:37:58;9.07;;;3.80;;
18532;SDS011;9396;51.510;11.934;2022-10-26T10:40:25;6.37;;;3.77;;
18532;SDS011;9396;51.510;11.934;2022-10-26T10:43:02;8.60;;;4.13;;
18532;SDS011;9396;51.510;11.934;2022-10-26T10:45:31;4.63;;;3.00;;
18532;SDS011;9396;51.510;11.934;2022-10-26T10:48:00;4.67;;;2.17;;
18532;SDS011;9396;51.510;11.934;2022-10-26T10:50:28;4.17;;;2.03;;
18532;SDS011;9396;51.510;11.934;2022-10-26T10:55:39;4.83;;;2.10;;
18532;SDS011;9396;51.510;11.934;2022-10-26T10:58:13;6.27;;;2.23;;
18532;SDS011;9396;51.510;11.934;2022-10-26T11:00:49;3.00;;;2.10;;
18532;SDS011;9396;51.510;11.934;2022-10-26T11:06:22;5.97;;;2.90;;
18532;SDS011;9396;51.510;11.934;2022-10-26T11:08:53;7.03;;;2.30;;
18532;SDS011;9396;51.510;11.934;2022-10-26T11:11:24;3.37;;;2.30;;
18532;SDS011;9396;51.510;11.934;2022-10-26T11:13:59;6.43;;;2.73;;
18532;SDS011;9396;51.510;11.934;2022-10-26T11:16:30;4.97;;;2.23;;
18532;SDS011;9396;51.510;11.934;2022-10-26T11:19:01;2.73;;;2.20;;
18532;SDS011;9396;51.510;11.934;2022-10-26T11:21:33;7.83;;;2.20;;
18532;SDS011;9396;51.510;11.934;2022-10-26T11:24:04;6.23;;;2.00;;
18532;SDS011;9396;51.510;11.934;2022-10-26T11:26:40;5.47;;;2.40;;
18532;SDS011;9396;51.510;11.934;2022-10-26T11:29:18;5.63;;;2.27;;
18532;SDS011;9396;51.510;11.934;2022-10-26T11:31:50;7.70;;;2.20;;
18532;SDS011;9396;51.510;11.934;2022-10-26T11:34:24;6.43;;;2.20;;
18532;SDS011;9396;51.510;11.934;2022-10-26T11:36:57;4.53;;;2.30;;
18532;SDS011;9396;51.510;11.934;2022-10-26T11:39:32;3.17;;;2.20;;
18532;SDS011;9396;51.510;11.934;2022-10-26T11:42:05;4.33;;;2.20;;
18532;SDS011;9396;51.510;11.934;2022-10-26T11:44:41;3.50;;;1.80;;
18532;SDS011;9396;51.510;11.934;2022-10-26T11:47:13;4.90;;;2.33;;
18532;SDS011;9396;51.510;11.934;2022-10-26T11:49:44;5.03;;;2.77;;
18532;SDS011;9396;51.510;11.934;2022-10-26T11:52:16;3.03;;;1.70;;
18532;SDS011;9396;51.510;11.934;2022-10-26T11:54:48;9.10;;;2.10;;
18532;SDS011;9396;51.510;11.934;2022-10-26T11:57:19;4.47;;;1.90;;
18532;SDS011;9396;51.510;11.934;2022-10-26T11:59:50;3.43;;;1.87;;
18532;SDS011;9396;51.510;11.934;2022-10-26T12:02:20;7.77;;;1.83;;
18532;SDS011;9396;51.510;11.934;2022-10-26T12:04:48;5.47;;;2.10;;
18532;SDS011;9396;51.510;11.934;2022-10-26T12:07:20;3.97;;;2.33;;
18532;SDS011;9396;51.510;11.934;2022-10-26T12:09:50;5.10;;;2.07;;
18532;SDS011;9396;51.510;11.934;2022-10-26T12:12:19;3.83;;;1.93;;
18532;SDS011;9396;51.510;11.934;2022-10-26T12:14:53;2.77;;;1.90;;
18532;SDS011;9396;51.510;11.934;2022-10-26T12:17:25;2.77;;;1.77;;
18532;SDS011;9396;51.510;11.934;2022-10-26T12:19:58;3.27;;;1.73;;
18532;SDS011;9396;51.510;11.934;2022-10-26T12:22:30;2.77;;;1.83;;
18532;SDS011;9396;51.510;11.934;2022-10-26T12:25:07;3.30;;;1.70;;
18532;SDS011;9396;51.510;11.934;2022-10-26T12:27:48;9.63;;;2.20;;
18532;SDS011;9396;51.510;11.934;2022-10-26T12:30:26;5.63;;;2.07;;
18532;SDS011;9396;51.510;11.934;2022-10-26T12:32:54;5.17;;;2.30;;
18532;SDS011;9396;51.510;11.934;2022-10-26T12:35:29;4.67;;;1.83;;
18532;SDS011;9396;51.510;11.934;2022-10-26T12:38:00;5.03;;;2.20;;
18532;SDS011;9396;51.510;11.934;2022-10-26T12:40:49;8.50;;;1.90;;
18532;SDS011;9396;51.510;11.934;2022-10-26T12:43:39;8.07;;;1.97;;
18532;SDS011;9396;51.510;11.934;2022-10-26T12:52:06;3.53;;;1.80;;
18532;SDS011;9396;51.510;11.934;2022-10-26T12:54:44;3.77;;;1.87;;
18532;SDS011;9396;51.510;11.934;2022-10-26T12:57:23;7.33;;;2.07;;
18532;SDS011;9396;51.510;11.934;2022-10-26T12:59:57;5.77;;;1.90;;
18532;SDS011;9396;51.510;11.934;2022-10-26T13:02:31;2.67;;;1.63;;
18532;SDS011;9396;51.510;11.934;2022-10-26T13:08:27;6.63;;;1.50;;
18532;SDS011;9396;51.510;11.934;2022-10-26T13:11:04;9.33;;;1.77;;
18532;SDS011;9396;51.510;11.934;2022-10-26T13:13:39;3.87;;;1.47;;
18532;SDS011;9396;51.510;11.934;2022-10-26T13:16:09;2.93;;;1.40;;
18532;SDS011;9396;51.510;11.934;2022-10-26T13:18:40;3.40;;;1.30;;
18532;SDS011;9396;51.510;11.934;2022-10-26T13:21:08;2.10;;;1.20;;
18532;SDS011;9396;51.510;11.934;2022-10-26T13:23:38;2.83;;;1.43;;
18532;SDS011;9396;51.510;11.934;2022-10-26T13:26:07;3.30;;;1.53;;
18532;SDS011;9396;51.510;11.934;2022-10-26T13:28:48;8.70;;;1.70;;
18532;SDS011;9396;51.510;11.934;2022-10-26T13:34:16;6.37;;;1.70;;
18532;SDS011;9396;51.510;11.934;2022-10-26T13:36:46;5.53;;;1.37;;
18532;SDS011;9396;51.510;11.934;2022-10-26T13:39:18;4.80;;;1.83;;
18532;SDS011;9396;51.510;11.934;2022-10-26T13:41:48;3.83;;;1.70;;
18532;SDS011;9396;51.510;11.934;2022-10-26T13:44:20;3.53;;;1.70;;
18532;SDS011;9396;51.510;11.934;2022-10-26T13:46:51;3.53;;;1.73;;
18532;SDS011;9396;51.510;11.934;2022-10-26T13:49:21;3.70;;;1.53;;
18532;SDS011;9396;51.510;11.934;2022-10-26T13:51:52;2.30;;;1.30;;
18532;SDS011;9396;51.510;11.934;2022-10-26T13:54:21;4.33;;;1.40;;
18532;SDS011;9396;51.510;11.934;2022-10-26T13:56:57;6.37;;;1.37;;
18532;SDS011;9396;51.510;11.934;2022-10-26T13:59:32;3.00;;;1.40;;
18532;SDS011;9396;51.510;11.934;2022-10-26T14:02:06;4.93;;;2.00;;
18532;SDS011;9396;51.510;11.934;2022-10-26T14:04:40;3.17;;;1.40;;
18532;SDS011;9396;51.510;11.934;2022-10-26T14:07:12;3.00;;;1.53;;
18532;SDS011;9396;51.510;11.934;2022-10-26T14:09:48;3.00;;;1.43;;
18532;SDS011;9396;51.510;11.934;2022-10-26T14:12:15;6.17;;;1.53;;
18532;SDS011;9396;51.510;11.934;2022-10-26T14:14:43;3.47;;;1.53;;
18532;SDS011;9396;51.510;11.934;2022-10-26T14:17:13;3.10;;;1.47;;
18532;SDS011;9396;51.510;11.934;2022-10-26T14:19:44;4.20;;;1.57;;
18532;SDS011;9396;51.510;11.934;2022-10-26T14:22:14;7.50;;;1.70;;
18532;SDS011;9396;51.510;11.934;2022-10-26T14:24:49;2.90;;;1.67;;
18532;SDS011;9396;51.510;11.934;2022-10-26T14:27:17;6.43;;;1.60;;
18532;SDS011;9396;51.510;11.934;2022-10-26T14:29:46;2.37;;;1.37;;
18532;SDS011;9396;51.510;11.934;2022-10-26T14:32:20;5.07;;;1.50;;
18532;SDS011;9396;51.510;11.934;2022-10-26T14:34:48;4.60;;;1.30;;
18532;SDS011;9396;51.510;11.934;2022-10-26T14:37:17;4.07;;;1.57;;
18532;SDS011;9396;51.510;11.934;2022-10-26T14:39:50;4.83;;;1.90;;
18532;SDS011;9396;51.510;11.934;2022-10-26T14:42:23;4.67;;;1.90;;
18532;SDS011;9396;51.510;11.934;2022-10-26T14:44:55;4.47;;;2.27;;
18532;SDS011;9396;51.510;11.934;2022-10-26T14:47:23;5.43;;;1.67;;
18532;SDS011;9396;51.510;11.934;2022-10-26T14:49:52;3.63;;;1.60;;
18532;SDS011;9396;51.510;11.934;2022-10-26T14:52:20;5.17;;;2.00;;
18532;SDS011;9396;51.510;11.934;2022-10-26T14:54:58;2.73;;;1.33;;
18532;SDS011;9396;51.510;11.934;2022-10-26T14:57:32;3.73;;;1.50;;
18532;SDS011;9396;51.510;11.934;2022-10-26T15:00:02;4.77;;;1.50;;
18532;SDS011;9396;51.510;11.934;2022-10-26T15:02:30;6.17;;;1.73;;
18532;SDS011;9396;51.510;11.934;2022-10-26T15:05:00;2.67;;;1.43;;
18532;SDS011;9396;51.510;11.934;2022-10-26T15:07:34;3.30;;;1.60;;
18532;SDS011;9396;51.510;11.934;2022-10-26T15:10:02;1.97;;;1.33;;
18532;SDS011;9396;51.510;11.934;2022-10-26T15:12:30;6.43;;;1.40;;
18532;SDS011;9396;51.510;11.934;2022-10-26T15:15:00;6.90;;;1.60;;
18532;SDS011;9396;51.510;11.934;2022-10-26T15:17:46;2.67;;;1.40;;
18532;SDS011;9396;51.510;11.934;2022-10-26T15:20:16;2.50;;;1.50;;
18532;SDS011;9396;51.510;11.934;2022-10-26T15:22:48;1.73;;;1.30;;
18532;SDS011;9396;51.510;11.934;2022-10-26T15:25:17;2.87;;;1.43;;
18532;SDS011;9396;51.510;11.934;2022-10-26T15:27:45;5.67;;;1.33;;
18532;SDS011;9396;51.510;11.934;2022-10-26T15:30:23;2.70;;;1.43;;
18532;SDS011;9396;51.510;11.934;2022-10-26T15:32:51;2.73;;;1.60;;